Noyes, MN (56740)

4:44 PM CDT on July 24, 2016 (GMT -0500)
Hallock Municipal | | Change Station

Elev 820 ft 48.75 °N, 96.94 °W | Updated 10 minutes ago

Scattered Clouds
Scattered Clouds
77 °F
Feels Like 77 °F
N
10
Wind Variable Wind from NW

Today
High -- | Low -- °F
--% Chance of Precip.
Yesterday
High -- | Low -- °F
Precip. -- in
Pressure 29.86 in
Visibility 10.0 miles
Clouds Scattered Clouds 4700 ft
Scattered Clouds 6000 ft
Scattered Clouds 9500 ft
Dew Point 63 °F
Humidity 61%
Rainfall 0.00 in
Snow Depth Not available.
5:51 AM 9:17 PM
Waning Gibbous, 73% visible
METAR KHCO 242134Z AUTO 31009KT 10SM SCT047 SCT060 SCT095 25/17 A2986 RMK AO2
Pressure 29.86 in
Visibility 10.0 miles
Clouds Scattered Clouds 4700 ft
Scattered Clouds 6000 ft
Scattered Clouds 9500 ft
Dew Point 63 °F
Humidity 61%
Rainfall 0.00 in
Snow Depth Not available.
5:51 AM 9:17 PM
Waning Gibbous, 73% visible
METAR KHCO 242134Z AUTO 31009KT 10SM SCT047 SCT060 SCT095 25/17 A2986 RMK AO2

10-Day Weather Forecast

Almanac

Astronomy

Jul. 24, 2016 Rise Set
Actual Time
Civil Twilight
Nautical Twilight
Astronomical Twilight
Moon
Length of Visible Light
Length of Day
Tomorrow will be .
, % of the Moon is Illuminated

Today's Extremes

State Highs State Lows

Community

WunderPhotos

Upload Photos

1,927,195 photos uploaded!

WunderBlog® & News

Nearby

Air Quality

  Air Quality AQ Index Pollutant
Not available.

Snow Depth

Station Depth Elevation

Earthquake Activity

City Distance Mag. Time & Date
Minimum magnitude displayed is 2.5.

Coastal Water Temperatures

Place Temperature

Stations

Nearby Weather Stations

Station Location Temp. Windchill Dew Point Humidity Wind Precip. Elev Updated Type
                   

Watches & Warnings

There are currently no watches in effect.